Terminal Aerodrome Forecast
Issued by NWS

Home | Current Version | Previous Version | Graphics & Text | Print | Product List | Glossary On
Versions: 1 2 3 4 5 6 7 8 9 10 11 12 13 14 15 16 17 18 19 20 21 22 23 24 25 26 27 28 29 30 31 32 33 34 35 36 37 38 39 40 41 42 43 44 45 46 47 48 49 50
000
FTUS43 KLOT 181959 AAA
TAFGYY
TAF AMD
KGYY 181959Z 1820/1918 01012G18KT P6SM BKN250
     FM190200 07011KT P6SM SCT040 SCT080 BKN150
     FM191500 08012G18KT P6SM VCSH SCT025 OVC080
     FM191700 07012G18KT 5SM -SHRA SCT015 BKN030 OVC050=

USA.gov is the U.S. government's official web portal to all federal, state and local government web resources and services.